Tiempo atmosférico en la estación meteorológica de San Cristóbal de La Laguna,Llano de los Loros, Santa Cruz de Tenerife (868 m.)



Fecha
DESCASC
Temp. máxima en grados centígrados (hora)
DESCASC
Temp. mínima en grados centígrados (hora)
DESCASC
Temp. media en grados centígrados
DESCASC
Racha de viento máxima en m/sg (hora)
DESCASC
Velocidad máxima media en intervalos de 10 minutos(hora)
DESCASC
Precipitaciones diarias en mm
DESCASC
Precipitaciones de 00:00 a 06:00 en mm
DESCASC
Precipitaciones de 06:00 a 12:00 en mm
DESCASC
Precipitaciones de 12:00 a 18:00 en mm
DESCASC
Precipitaciones de 18:00 a 24:00 en mm
DESCASC
10-07-2020 21.3 (15:00) 13.9 (05:30) 17.6 16.11 (22:50) 11.39 (08:10) 0 0 0 0 0
09-07-2020 28.5 (11:30) 14.6 (23:30) 21.6 14.17 (23:59) 10.83 (23:50) 0 0 0 0 0
08-07-2020 37.5 (13:00) 23 (05:20) 30.3 11.67 (22:00) 7.5 (22:00) 0 0 0 0 0
07-07-2020 38.6 (13:30) 24.9 (02:10) 31.7 13.33 (02:40) 9.72 (01:20) 0 0 0 0 0
06-07-2020 36.7 (13:20) 19.6 (00:00) 28.2 14.17 (01:50) 9.17 (00:50) 0 0 0 0 0
05-07-2020 32.9 (15:20) 13.1 (04:30) 23 20.56 (01:50) 15 (01:40) 0.2 0 0.2 0 0
04-07-2020 14.9 (14:10) 13.3 (21:30) 14.1 22.22 (12:40) 13.89 (23:20) 0.4 0.2 0.2 0 0
03-07-2020 19.4 (12:10) 14.1 (21:10) 16.8 18.33 (18:10) 11.67 (22:40) 0 0 0 0 0
02-07-2020 20.2 (11:10) 14.3 (00:00) 17.3 18.06 (23:00) 12.78 (23:00) 0.2 0 0.2 0 0
01-07-2020 23.5 (12:40) 13.7 (00:00) 18.6 15.28 (21:10) 10.83 (20:40) 0.2 0.2 0 0 0
30-06-2020 17.5 (16:20) 13.8 (00:00) 15.7 16.39 (02:40) 11.11 (02:40) 1.6 1.2 0.4 0 0
29-06-2020 15.7 (14:40) 14.1 (00:00) 14.9 20.28 (18:10) 12.5 (20:40) 10.2 2.8 5.2 1.2 1
28-06-2020 16.6 (14:20) 13.6 (00:00) 15.1 17.78 (20:30) 11.11 (05:40) 3 0.2 0.2 0 2.6
27-06-2020 17.8 (13:30) 12.5 (00:00) 15.1 16.67 (04:30) 11.39 (00:40) 0 0 0 0 0
26-06-2020 17 (14:50) 12.7 (00:00) 14.8 18.61 (07:30) 11.94 (07:20) 0.4 0.4 0 0 0
25-06-2020 17.4 (13:00) 13.2 (00:00) 15.3 19.72 (06:30) 11.11 (08:30) 0.4 0 0 0 0.4
24-06-2020 15.8 (12:10) 13.5 (00:00) 14.7 20.28 (11:20) 13.61 (09:40) 0.2 0.2 0 0 0
23-06-2020 17.1 (15:00) 13.3 (00:00) 15.2 17.78 (16:00) 11.67 (16:00) 0 0 0 0 0
22-06-2020 20.3 (15:50) 13.4 (00:00) 16.8 15.83 (06:10) 11.39 (06:20) 0 0 0 0 0
21-06-2020 21.5 (15:10) 13.1 (00:00) 17.3 15.28 (21:40) 10 (21:40) 0 0 0 0 0
20-06-2020 17.6 (16:40) 13.1 (00:00) 15.4 15.28 (23:59) 10.28 (20:50) 0.8 0.8 0 0 0
19-06-2020 18.7 (13:20) 13.9 (00:00) 16.3 13.61 (23:00) 8.33 (22:40) 0.8 0.8 0 0 0
18-06-2020 17.6 (17:20) 13.8 (08:00) 15.7 13.61 (19:40) 8.61 (22:10) 0.8 0.8 0 0 0
17-06-2020 23.4 (13:10) 15.1 (00:00) 19.3 16.39 (00:40) 9.44 (05:10) 0 0 0 0 0
16-06-2020 26.3 (12:40) 18.4 (00:00) 22.3 18.06 (19:40) 9.44 (20:20) 0 0 0 0 0
15-06-2020 25.2 (15:50) 15.8 (00:00) 20.5 15.28 (07:40) 9.72 (21:30) 0.6 0.6 0 0 0

Gráficas

Temp. máximas Temp. mínimas Temp. medias Precipitaciones Rachas de viento máximas Velocidades máximas media en intervalos de 10 minutos

Datos horarios

Fecha y hora oficial Temperatura (ºC) Velocidad del viento (km/h) Dirección del viento Racha (km/h) Dirección de racha Precipitación (mm) Presión (hPa) Tendencia (hPa) Humedad (%)
2020-07-14 23:00:00 15 17 Noroeste 39 Oeste 0 -- -- 100
2020-07-14 22:00:00 15.3 20 Noroeste 49 Noroeste 0 -- -- 100
2020-07-14 21:00:00 15.7 31 Noroeste 53 Noroeste 0 -- -- 100
2020-07-14 20:00:00 15.7 27 Noroeste 46 Noroeste 0 -- -- 100
2020-07-14 19:00:00 15.6 25 Noroeste 46 Noroeste 0 -- -- 99
2020-07-14 18:00:00 16 28 Noroeste 49 Noroeste 0 -- -- 98
2020-07-14 17:00:00 16.2 34 Noroeste 47 Noroeste 0 -- -- 96
2020-07-14 16:00:00 17.9 22 Noroeste 47 Noroeste 0 -- -- 89
2020-07-14 15:00:00 17 28 Noroeste 45 Noroeste 0 -- -- 92
2020-07-14 14:00:00 17.2 34 Noroeste 49 Noroeste 0 -- -- 89
2020-07-14 13:00:00 16.9 35 Noroeste 49 Noroeste 0 -- -- 98
2020-07-14 12:00:00 15.4 35 Noroeste 49 Noroeste 0 -- -- 99
2020-07-14 11:00:00 14.7 31 Noroeste 50 Noroeste 0 -- -- 100
2020-07-14 10:00:00 14.2 36 Noroeste 60 Noroeste 0 -- -- 100
2020-07-14 09:00:00 14 41 Noroeste 67 Noroeste 0 -- -- 100
2020-07-14 08:00:00 13.6 40 Noroeste 59 Noroeste 0 -- -- 100
2020-07-14 07:00:00 13.9 41 Noroeste 59 Noroeste 0 -- -- 100
2020-07-14 06:00:00 13.7 42 Noroeste 60 Noroeste 0 -- -- 100
2020-07-14 05:00:00 13.8 41 Noroeste 55 Noroeste 0 -- -- 100
2020-07-14 04:00:00 13.7 41 Noroeste 58 Noroeste 0 -- -- 100
2020-07-14 03:00:00 13.7 40 Noroeste 50 Noroeste 0 -- -- 100
2020-07-14 02:00:00 13.7 36 Noroeste 51 Noroeste 0 -- -- 99
2020-07-14 01:00:00 13.7 37 Noroeste 56 Noroeste 0 -- -- 99
2020-07-14 00:00:00 13.8 37 Noroeste 54 Noroeste 0 -- -- 98
2020-07-13 23:00:00 14.1 34 Noroeste 48 Noroeste 0 -- -- 97
2020-07-13 22:00:00 14.5 35 Noroeste 47 Norte 0 -- -- 97
2020-07-13 21:00:00 14.9 34 Noroeste 48 Noroeste 0 -- -- 96
2020-07-13 20:00:00 15.8 33 Noroeste 46 Noroeste 0 -- -- 90
2020-07-13 19:00:00 17.8 33 Noroeste 45 Noroeste 0 -- -- 81
2020-07-13 18:00:00 19.7 30 Noroeste 44 Noroeste 0 -- -- 73
2020-07-13 17:00:00 21.7 23 Noroeste 36 Norte 0 -- -- 65
2020-07-13 16:00:00 22.4 21 Norte 32 Norte 0 -- -- 63
2020-07-13 15:00:00 23.4 17 Norte 27 Noroeste 0 -- -- 57
2020-07-13 14:00:00 30.7 9 Sudeste 18 Este 0 -- -- 42
2020-07-13 13:00:00 30.3 9 Sudeste 15 Sudeste 0 -- -- 46
2020-07-13 12:00:00 29.4 7 Sudeste 14 Este 0 -- -- 43
2020-07-13 11:00:00 30 8 Sudeste 14 Sudeste 0 -- -- 35
2020-07-13 10:00:00 26.7 5 Sudeste 15 Este 0 -- -- 26
2020-07-13 09:00:00 25.4 11 Este 16 Este 0 -- -- 27
2020-07-13 08:00:00 19.2 6 Este 17 Este 0 -- -- 39
2020-07-13 07:00:00 21.4 11 Este 21 Este 0 -- -- 26
2020-07-13 06:00:00 21.3 10 Este 26 Este 0 -- -- 29
2020-07-13 05:00:00 21.5 13 Este 23 Este 0 -- -- 27
2020-07-13 04:00:00 19 5 Oeste 18 Sudoeste 0 -- -- 38
2020-07-13 03:00:00 18.9 4 Oeste 24 Sudeste 0 -- -- 42
2020-07-13 02:00:00 19.4 5 Oeste 15 Sur 0 -- -- 42
2020-07-13 01:00:00 19.3 4 Oeste 15 Sur 0 -- -- 41
2020-07-13 00:00:00 19.2 5 Oeste 13 Sudoeste 0 -- -- 41
2020-07-12 23:00:00 18.7 4 Oeste 19 Este 0 -- -- 44
2020-07-12 22:00:00 21.1 12 Sudeste 23 Este 0 -- -- 37
2020-07-12 21:00:00 20.5 8 Este 20 Este 0 -- -- 40
2020-07-12 20:00:00 22.7 6 Sudeste 17 Sur 0 -- -- 34
2020-07-12 19:00:00 24.8 7 Sudeste 18 Sudeste 0 -- -- 36
2020-07-12 18:00:00 28.5 5 Sudeste 14 Sudeste 0 -- -- 46
2020-07-12 17:00:00 29.7 8 Sudeste 17 Sudeste 0 -- -- 41
2020-07-12 16:00:00 32 10 Sudeste 17 Sudeste 0 -- -- 37
2020-07-12 15:00:00 31.3 12 Sudeste 18 Sudeste 0 -- -- 38
2020-07-12 14:00:00 31.8 10 Sudeste 17 Sudeste 0 -- -- 37
2020-07-12 13:00:00 30.7 9 Sudeste 24 Este 0 -- -- 35
2020-07-12 12:00:00 30.2 12 Sudeste 28 Sudeste 0 -- -- 28
2020-07-12 11:00:00 27.3 7 Sudeste 19 Este 0 -- -- 34
2020-07-12 10:00:00 25.6 14 Sudeste 28 Sudeste 0 -- -- 36
2020-07-12 09:00:00 22.5 16 Este 32 Este 0 -- -- 38
2020-07-12 08:00:00 18.9 8 Este 26 Sudeste 0 -- -- 42
2020-07-12 07:00:00 17.9 6 Oeste 30 Este 0 -- -- 51
2020-07-12 06:00:00 16.2 4 Noroeste 20 Oeste 0 -- -- 61
2020-07-12 05:00:00 16.4 6 Oeste 26 Sudoeste 0 -- -- 66
2020-07-12 04:00:00 17.1 8 Sudoeste 31 Sur 0 -- -- 63
2020-07-12 03:00:00 16.3 9 Sudoeste 27 Sudoeste 0 -- -- 71
2020-07-12 02:00:00 17.3 10 Sudoeste 32 Sudoeste 0 -- -- 60
2020-07-12 01:00:00 15.9 7 Oeste 29 Noroeste 0 -- -- 73
2020-07-12 00:00:00 14.7 7 Oeste 26 Sur 0 -- -- 89
2020-07-11 23:00:00 14.7 12 Noroeste 47 Norte 0 -- -- 93
2020-07-11 22:00:00 14.9 32 Norte 45 Norte 0 -- -- 94
2020-07-11 21:00:00 16.5 24 Norte 43 Norte 0 -- -- 71
2020-07-11 20:00:00 16.5 28 Norte 46 Norte 0 -- -- 84
2020-07-11 19:00:00 17.2 22 Norte 45 Norte 0 -- -- 86
2020-07-11 18:00:00 17.9 33 Norte 50 Norte 0 -- -- 84
2020-07-11 17:00:00 18.7 31 Norte 45 Norte 0 -- -- 82
2020-07-11 16:00:00 18.7 27 Norte 45 Norte 0 -- -- 83
2020-07-11 15:00:00 18 32 Norte 44 Norte 0 -- -- 88
2020-07-11 14:00:00 17.6 31 Norte 46 Norte 0 -- -- 95
2020-07-11 13:00:00 17.3 32 Norte 47 Norte 0 -- -- 99
2020-07-11 12:00:00 16.6 27 Norte 43 Norte 0 -- -- 100
2020-07-11 11:00:00 15.6 28 Norte 46 Norte 0 -- -- 100
2020-07-11 10:00:00 15.1 31 Norte 46 Norte -- -- -- 100
2020-07-11 09:00:00 15 33 Noroeste 53 Noroeste 0 -- -- 100
2020-07-11 08:00:00 14.5 36 Norte 50 Noroeste 0 -- -- 100
2020-07-11 07:00:00 14.4 37 Noroeste 56 Noroeste 0 -- -- 100
2020-07-11 06:00:00 14.8 34 Noroeste 58 Noroeste 0 -- -- 100
2020-07-11 05:00:00 14.8 36 Noroeste 57 Noroeste 0 -- -- 100
2020-07-11 04:00:00 14.6 39 Noroeste 58 Noroeste 0 -- -- 100
2020-07-11 03:00:00 14.9 37 Noroeste 62 Noroeste 0 -- -- 100
2020-07-11 02:00:00 14.7 39 Noroeste 63 Noroeste 0 -- -- 100
2020-07-11 01:00:00 14.8 38 Noroeste 58 Norte 0 -- -- 100
2020-07-11 00:00:00 14.6 41 Noroeste 58 Noroeste 0 -- -- 100
2020-07-10 23:00:00 14.6 39 Noroeste 58 Noroeste 0 -- -- 99
2020-07-10 22:00:00 14.8 37 Noroeste 52 Norte 0 -- -- 99
2020-07-10 21:00:00 14.8 37 Norte 50 Norte 0 -- -- 97
2020-07-10 20:00:00 15.3 34 Norte 45 Norte 0 -- -- 94
2020-07-10 19:00:00 16.9 33 Norte 44 Noroeste 0 -- -- 87
2020-07-10 18:00:00 17.5 36 Norte 48 Norte 0 -- -- 86
2020-07-10 17:00:00 18.5 35 Norte 47 Norte 0 -- -- 80
2020-07-10 16:00:00 19.2 31 Norte 42 Norte 0 -- -- 79
2020-07-10 15:00:00 21.3 14 Norte 45 Norte 0 -- -- 69
2020-07-10 14:00:00 18.5 33 Norte 45 Norte 0 -- -- 83
2020-07-10 13:00:00 17.2 33 Norte 47 Noroeste 0 -- -- 97
2020-07-10 12:00:00 16.1 37 Norte 50 Norte 0 -- -- 99
2020-07-10 11:00:00 15.4 36 Norte 54 Noroeste 0 -- -- 100
2020-07-10 10:00:00 15 38 Noroeste 55 Norte 0 -- -- 100
2020-07-10 09:00:00 14.5 39 Norte 57 Noroeste 0 -- -- 100
2020-07-10 08:00:00 14.1 40 Noroeste 57 Norte 0 -- -- 100
2020-07-10 07:00:00 14 34 Noroeste 54 Noroeste 0 -- -- 100
2020-07-10 06:00:00 14.3 32 Noroeste 50 Noroeste 0 -- -- 100
2020-07-10 05:00:00 14.2 30 Noroeste 53 Noroeste 0 -- -- 99
2020-07-10 04:00:00 14.2 32 Noroeste 55 Noroeste 0 -- -- 99
2020-07-10 03:00:00 14.4 33 Noroeste 58 Noroeste 0 -- -- 99
2020-07-10 02:00:00 14.5 35 Noroeste 53 Noroeste 0 -- -- 98
2020-07-10 01:00:00 14.3 36 Noroeste 51 Oeste 0 -- -- 97
2020-07-10 00:00:00 14.7 37 Noroeste 51 Noroeste 0 -- -- 96
2020-07-09 23:00:00 14.8 33 Noroeste 48 Noroeste 0 -- -- 91
2020-07-09 22:00:00 17.9 27 Noroeste 43 Noroeste 0 -- -- 47
2020-07-09 21:00:00 18.7 27 Noroeste 43 Noroeste 0 -- -- 43
2020-07-09 20:00:00 19.1 28 Noroeste 41 Noroeste 0 -- -- 63
2020-07-09 19:00:00 20.3 29 Noroeste 41 Oeste 0 -- -- 64
2020-07-09 18:00:00 21.7 27 Noroeste 41 Noroeste 0 -- -- 59
2020-07-09 17:00:00 25.5 13 Noroeste 31 Noroeste 0 -- -- 37
2020-07-09 16:00:00 26.6 15 Noroeste 35 Noroeste 0 -- -- 24
2020-07-09 15:00:00 25.9 20 Norte 40 Norte 0 -- -- 19
2020-07-09 14:00:00 26.2 13 Noroeste 26 Norte 0 -- -- 35
2020-07-09 13:00:00 27.2 9 Norte 32 Nordeste 0 -- -- 28
2020-07-09 12:00:00 27.2 8 Nordeste 28 Nordeste 0 -- -- 25
2020-07-09 11:00:00 27.7 10 Este 28 Este 0 -- -- 22
2020-07-09 10:00:00 26.6 10 Este 27 Nordeste 0 -- -- 16
2020-07-09 09:00:00 25.5 7 Norte 36 Norte 0 -- -- 14
2020-07-09 08:00:00 25.5 25 Norte 39 Nordeste 0 -- -- 8
2020-07-09 07:00:00 24.8 24 Norte 40 Nordeste 0 -- -- 9
2020-07-09 06:00:00 26.1 22 Norte 36 Nordeste 0 -- -- 8
2020-07-09 05:00:00 26.4 14 Norte 33 Nordeste 0 -- -- 8
2020-07-09 04:00:00 26.5 14 Norte 37 Nordeste 0 -- -- 8
2020-07-09 03:00:00 26.2 22 Norte 37 Nordeste 0 -- -- 10
2020-07-09 02:00:00 25.9 13 Norte 32 Norte 0 -- -- 11
2020-07-09 01:00:00 27.2 16 Norte 32 Nordeste 0 -- -- 8
2020-07-09 00:00:00 27.2 16 Norte 38 Nordeste 0 -- -- 11
2020-07-08 23:00:00 27.5 24 Norte 42 Nordeste 0 -- -- 11
2020-07-08 22:00:00 27.4 27 Nordeste 42 Nordeste 0 -- -- 13
2020-07-08 21:00:00 25.5 7 Noroeste 30 Norte 0 -- -- 18
2020-07-08 20:00:00 27.3 16 Norte 31 Norte 0 -- -- 15
2020-07-08 19:00:00 28.5 4 Oeste 21 Este 0 -- -- 23
2020-07-08 18:00:00 29.7 7 Nordeste 20 Norte 0 -- -- 23
2020-07-08 17:00:00 32 7 Sudeste 18 Norte 0 -- -- 22
2020-07-08 16:00:00 31.2 12 Norte 31 Noroeste 0 -- -- 17
2020-07-08 15:00:00 31.1 18 Norte 39 Norte 0 -- -- 18
2020-07-08 14:00:00 29.8 26 Norte 41 Noroeste 0 -- -- 19
2020-07-08 13:00:00 37.5 11 Sudeste 22 Este 0 -- -- 21
2020-07-08 12:00:00 35.1 8 Sur 18 Nordeste 0 -- -- 21
2020-07-08 11:00:00 33.6 4 Sur 10 Sudeste 0 -- -- 19
2020-07-08 10:00:00 30.4 3 Noroeste 12 Oeste 0 -- -- 21
2020-07-08 09:00:00 26.5 4 Oeste 12 Sudoeste 0 -- -- 23
2020-07-08 08:00:00 23.9 4 Oeste 22 Norte 0 -- -- 28
2020-07-08 07:00:00 24.7 5 Oeste 13 Oeste 0 -- -- 23
2020-07-08 06:00:00 23.5 6 Noroeste 10 Oeste 0 -- -- 28
2020-07-08 05:00:00 23.6 3 Oeste 10 Oeste 0 -- -- 28
2020-07-08 04:00:00 24.8 5 Oeste 12 Sudoeste 0 -- -- 28
2020-07-08 03:00:00 25.1 5 Oeste 15 Nordeste 0 -- -- 24
2020-07-08 02:00:00 27 9 Noroeste 32 Nordeste 0 -- -- 23
2020-07-08 01:00:00 28.3 21 Norte 35 Nordeste 0 -- -- 20
2020-07-08 00:00:00 28.8 20 Norte 33 Nordeste 0 -- -- 21
2020-07-07 23:00:00 27.8 19 Norte 31 Norte 0 -- -- 24
2020-07-07 22:00:00 26.5 23 Norte 32 Norte 0 -- -- 26
2020-07-07 21:00:00 26.7 24 Norte 32 Norte 0 -- -- 27
2020-07-07 20:00:00 27.7 21 Noroeste 35 Noroeste 0 -- -- 27
2020-07-07 19:00:00 28.9 21 Noroeste 32 Noroeste 0 -- -- 27
2020-07-07 18:00:00 31.2 16 Norte 25 Norte 0 -- -- 24
2020-07-07 17:00:00 33.9 8 Norte 20 Norte 0 -- -- 21
2020-07-07 16:00:00 36.3 3 Sudeste 10 Sur 0 -- -- 37
2020-07-07 15:00:00 36.3 4 Sur 11 Sudeste 0 -- -- 35
2020-07-07 14:00:00 36.7 6 Sudeste 12 Sudeste 0 -- -- 34
2020-07-07 13:00:00 37.8 6 Sudeste 12 Sur 0 -- -- 31
2020-07-07 12:00:00 35.9 4 Sur 9 Sur 0 -- -- 30
2020-07-07 11:00:00 33.1 3 Oeste 6 Sudeste 0 -- -- 26
2020-07-07 10:00:00 31.5 4 Sudeste 9 Nordeste 0 -- -- 27
2020-07-07 09:00:00 27.5 4 Sudeste 21 Norte 0 -- -- 32
2020-07-07 08:00:00 28.2 15 Norte 27 Norte 0 -- -- 25
2020-07-07 07:00:00 27.7 17 Norte 33 Norte 0 -- -- 26
2020-07-07 06:00:00 27.6 24 Norte 37 Norte 0 -- -- 26
2020-07-07 05:00:00 26.8 30 Norte 41 Norte 0 -- -- 27
2020-07-07 04:00:00 25.9 32 Norte 43 Norte 0 -- -- 28
2020-07-07 03:00:00 25.7 32 Norte 48 Norte 0 -- -- 27
2020-07-07 02:00:00 25 35 Norte 46 Norte 0 -- -- 25
2020-07-07 01:00:00 25.1 35 Norte 45 Norte 0 -- -- 21
2020-07-07 00:00:00 25.3 30 Norte 39 Norte 0 -- -- 18
2020-07-06 23:00:00 25.9 27 Norte 38 Norte 0 -- -- 21
2020-07-06 22:00:00 26.2 25 Norte 36 Norte 0 -- -- 23
2020-07-06 21:00:00 26.2 27 Norte 38 Norte 0 -- -- 25
2020-07-06 20:00:00 26.6 24 Norte 33 Norte 0 -- -- 25
2020-07-06 19:00:00 28.1 24 Norte 33 Norte 0 -- -- 27
2020-07-06 18:00:00 30.5 17 Norte 26 Norte 0 -- -- 29
2020-07-06 17:00:00 35.1 6 Sur 29 Norte 0 -- -- 24
2020-07-06 16:00:00 31.1 22 Norte 34 Norte 0 -- -- 23
2020-07-06 15:00:00 35.7 7 Sudeste 22 Este 0 -- -- 29
2020-07-06 14:00:00 36.3 13 Sudeste 28 Sudeste 0 -- -- 24
2020-07-06 13:00:00 35.5 12 Sudeste 24 Este 0 -- -- 19
2020-07-06 12:00:00 34 8 Sur 14 Sur 0 -- -- 22
2020-07-06 11:00:00 30.6 5 Sur 25 Este 0 -- -- 20
2020-07-06 10:00:00 27.4 8 Sudeste 28 Este 0 -- -- 28
2020-07-06 09:00:00 28.3 15 Este 35 Sudeste 0 -- -- 17
2020-07-06 08:00:00 27.4 12 Este 31 Sudeste 0 -- -- 14
2020-07-06 07:00:00 25.4 9 Norte 26 Nordeste 0 -- -- 13
2020-07-06 06:00:00 21.6 3 Oeste 21 Oeste 0 -- -- 23
2020-07-06 05:00:00 19.8 6 Oeste 14 Oeste 0 -- -- 30
2020-07-06 04:00:00 20.7 4 Oeste 26 Sur 0 -- -- 24
2020-07-06 03:00:00 19.7 5 Sudoeste 37 Noroeste 0 -- -- 35
2020-07-06 02:00:00 23.1 24 Norte 51 Norte 0 -- -- 31
2020-07-06 01:00:00 22 22 Norte 50 Nordeste 0 -- -- 33
2020-07-06 00:00:00 21.8 30 Norte 49 Nordeste 0 -- -- 34
2020-07-05 23:00:00 21.5 27 Norte 44 Norte 0 -- -- 34
2020-07-05 22:00:00 21.9 21 Norte 46 Norte 0 -- -- 34
2020-07-05 21:00:00 20.5 27 Norte 42 Norte 0 -- -- 37
2020-07-05 20:00:00 21.7 20 Norte 42 Norte 0 -- -- 36
2020-07-05 19:00:00 21.4 24 Norte 38 Norte 0 -- -- 48
2020-07-05 18:00:00 24.4 17 Norte 27 Norte 0 -- -- 49
2020-07-05 17:00:00 25.3 14 Norte 27 Nordeste 0 -- -- 40
2020-07-05 16:00:00 28.8 10 Nordeste 18 Nordeste 0 -- -- 30
2020-07-05 15:00:00 30.8 7 Este 18 Sudeste 0 -- -- 37
2020-07-05 14:00:00 29.1 6 Este 15 Sudeste 0 -- -- 31
2020-07-05 13:00:00 27.4 8 Sudeste 15 Sudeste 0 -- -- 45
2020-07-05 12:00:00 24.2 7 Sudeste 18 Sudeste 0 -- -- 66
2020-07-05 11:00:00 19.2 5 Sudoeste 22 Oeste 0 -- -- 97
2020-07-05 10:00:00 16.5 9 Noroeste 44 Norte 0 -- -- 100
2020-07-05 09:00:00 13.6 31 Norte 48 Norte 0.2 -- -- 100
2020-07-05 08:00:00 13.2 35 Norte 58 Norte 0 -- -- 100
2020-07-05 07:00:00 13.5 37 Norte 57 Norte 0 -- -- 100
2020-07-05 06:00:00 13.6 43 Norte 60 Norte 0 -- -- 100
2020-07-05 05:00:00 13.2 43 Norte 66 Norte 0 -- -- 100
2020-07-05 04:00:00 13.5 44 Norte 64 Noroeste 0 -- -- 100
2020-07-05 03:00:00 13.3 48 Noroeste 69 Norte 0 -- -- 100
2020-07-05 02:00:00 13.6 53 Noroeste 74 Noroeste 0 -- -- 100
2020-07-05 01:00:00 13.5 49 Noroeste 69 Norte 0 -- -- 100
2020-07-05 00:00:00 13.4 47 Norte 67 Norte 0 -- -- 100
2020-07-04 23:00:00 13.5 48 Norte 66 Norte 0 -- -- 100
2020-07-04 22:00:00 13.7 47 Norte 63 Norte 0 -- -- 100
2020-07-04 21:00:00 13.7 44 Norte 58 Norte 0 -- -- 100
2020-07-04 20:00:00 13.8 42 Norte 57 Norte 0 -- -- 100
2020-07-04 19:00:00 14.2 36 Norte 56 Norte 0 -- -- 100
2020-07-04 18:00:00 14.6 36 Norte 55 Norte 0 -- -- 100
2020-07-04 17:00:00 14.6 38 Norte 57 Norte 0 -- -- 100
2020-07-04 16:00:00 14.6 32 Noroeste 60 Norte 0 -- -- 100
2020-07-04 15:00:00 14.7 38 Noroeste 60 Noroeste 0 -- -- 100
2020-07-04 14:00:00 14.7 40 Noroeste 71 Noroeste -- -- -- 100
2020-07-04 13:00:00 14.5 43 Noroeste 80 Norte 0 -- -- 100
2020-07-04 12:00:00 14.4 40 Noroeste 63 Norte 0 -- -- 100
2020-07-04 11:00:00 14.5 39 Noroeste 66 Noroeste 0 -- -- 100
2020-07-04 10:00:00 14.1 39 Noroeste 61 Noroeste 0 -- -- 100
2020-07-04 09:00:00 13.9 42 Noroeste 67 Noroeste 0 -- -- 100
2020-07-04 08:00:00 13.6 39 Norte 64 Noroeste 0.2 -- -- 100
2020-07-04 07:00:00 13.8 41 Noroeste 67 Norte 0 -- -- 100
2020-07-04 06:00:00 13.8 40 Norte 64 Norte 0 -- -- 100
2020-07-04 05:00:00 13.8 41 Norte 64 Norte 0.2 -- -- 100
2020-07-04 04:00:00 14.3 42 Norte 65 Noroeste 0 -- -- 100
2020-07-04 03:00:00 13.9 37 Norte 66 Norte 0 -- -- 100
2020-07-04 02:00:00 14 39 Norte 62 Norte 0 -- -- 100
2020-07-04 01:00:00 14 38 Norte 63 Norte 0 -- -- 100
2020-07-04 00:00:00 14.5 39 Norte 62 Norte 0 -- -- 100
2020-07-03 23:00:00 14.2 39 Norte 62 Norte 0 -- -- 100
2020-07-03 22:00:00 14.1 41 Norte 58 Noroeste 0 -- -- 100
2020-07-03 21:00:00 14.3 40 Norte 62 Norte 0 -- -- 100
2020-07-03 20:00:00 14.6 38 Norte 62 Noroeste 0 -- -- 100
2020-07-03 19:00:00 15 36 Norte 66 Norte 0 -- -- 99
2020-07-03 18:00:00 15.4 36 Norte 60 Norte 0 -- -- 97
2020-07-03 17:00:00 16.2 33 Norte 58 Norte 0 -- -- 96
2020-07-03 16:00:00 16.8 32 Norte 57 Norte 0 -- -- 93
2020-07-03 15:00:00 16.1 34 Norte 61 Norte 0 -- -- 96
2020-07-03 14:00:00 17 33 Norte 55 Norte 0 -- -- 92
2020-07-03 13:00:00 17.5 31 Norte 50 Norte 0 -- -- 89
2020-07-03 12:00:00 19.3 18 Norte 47 Norte 0 -- -- 68
2020-07-03 11:00:00 16.3 33 Norte 56 Norte 0 -- -- 94
2020-07-03 10:00:00 15.8 32 Norte 51 Noroeste 0 -- -- 96
2020-07-03 09:00:00 16.7 23 Norte 52 Nordeste 0 -- -- 83
2020-07-03 08:00:00 15.7 26 Norte 53 Norte 0 -- -- 89
2020-07-03 07:00:00 14.6 33 Norte 55 Norte 0 -- -- 100
2020-07-03 06:00:00 14.6 39 Norte 58 Norte 0 -- -- 100
2020-07-03 05:00:00 14.5 36 Norte 56 Norte 0 -- -- 100
2020-07-03 04:00:00 14.7 40 Norte 57 Norte 0 -- -- 100
2020-07-03 03:00:00 15.2 34 Norte 51 Nordeste 0 -- -- 99
2020-07-03 02:00:00 15 32 Norte 53 Norte 0 -- -- 100
2020-07-03 01:00:00 14.6 37 Norte 58 Norte 0 -- -- 100
2020-07-03 00:00:00 14.9 43 Norte 62 Norte 0 -- -- 100
2020-07-02 23:00:00 15.1 46 Noroeste 65 Noroeste 0 -- -- 100
2020-07-02 22:00:00 14.8 44 Norte 61 Norte 0 -- -- 100
2020-07-02 21:00:00 15.1 43 Norte 60 Norte 0 -- -- 100
2020-07-02 20:00:00 15 41 Norte 62 Norte 0 -- -- 100
2020-07-02 19:00:00 15.4 37 Norte 55 Norte 0 -- -- 98
2020-07-02 18:00:00 15.9 38 Norte 54 Norte 0 -- -- 97
2020-07-02 17:00:00 17 28 Norte 50 Norte 0 -- -- 90
2020-07-02 16:00:00 18 30 Norte 49 Nordeste 0 -- -- 84
2020-07-02 15:00:00 17.8 29 Norte 53 Norte 0 -- -- 85
2020-07-02 14:00:00 17.6 26 Norte 49 Norte 0 -- -- 87
2020-07-02 13:00:00 17.3 26 Norte 54 Norte 0 -- -- 91
2020-07-02 12:00:00 17.3 27 Norte 44 Norte 0 -- -- 88
2020-07-02 11:00:00 19.5 11 Nordeste 42 Noroeste -- -- -- 96
2020-07-02 10:00:00 15.5 29 Norte 53 Norte 0 -- -- 100
2020-07-02 09:00:00 14.8 31 Norte 53 Norte 0 -- -- 100
2020-07-02 08:00:00 14.3 31 Norte 55 Norte 0 -- -- 100
2020-07-02 07:00:00 14.5 36 Norte 55 Norte 0.2 -- -- 100
2020-07-02 06:00:00 14.8 33 Norte 54 Nordeste 0 -- -- 100
2020-07-02 05:00:00 14.7 39 Norte 57 Norte 0 -- -- 100
2020-07-02 04:00:00 14.8 35 Norte 56 Norte 0 -- -- 100
2020-07-02 03:00:00 14.6 36 Norte 58 Norte 0 -- -- 100
2020-07-02 02:00:00 14.6 41 Norte 55 Norte 0 -- -- 98
2020-07-02 01:00:00 15.1 35 Norte 51 Norte 0 -- -- 92
2020-07-02 00:00:00 17.8 28 Norte 48 Norte 0 -- -- 70
2020-07-01 23:00:00 18.2 28 Norte 47 Norte 0 -- -- 71
2020-07-01 22:00:00 15 36 Norte 55 Norte 0 -- -- 100
2020-07-01 21:00:00 15.2 35 Norte 54 Norte 0 -- -- 100
2020-07-01 20:00:00 15.3 37 Norte 51 Norte 0 -- -- 98
2020-07-01 19:00:00 16 31 Norte 45 Norte 0 -- -- 93
2020-07-01 18:00:00 18.2 19 Norte 39 Norte 0 -- -- 81
2020-07-01 17:00:00 20.6 15 Norte 43 Norte 0 -- -- 68
2020-07-01 16:00:00 22.5 16 Norte 28 Norte 0 -- -- 56
2020-07-01 15:00:00 19.6 15 Norte 30 Noroeste 0 -- -- 73
2020-07-01 14:00:00 21.6 9 Nordeste 27 Norte 0 -- -- 69
2020-07-01 13:00:00 23.3 7 Sudeste 22 Norte 0 -- -- 72
2020-07-01 12:00:00 21 10 Norte 39 Norte 0 -- -- 80
2020-07-01 11:00:00 15.4 24 Norte 47 Norte 0 -- -- 100
2020-07-01 10:00:00 14.5 30 Norte 48 Noroeste 0 -- -- 100
2020-07-01 09:00:00 14.3 23 Norte 52 Noroeste 0 -- -- 100
2020-07-01 08:00:00 13.8 32 Norte 51 Norte 0 -- -- 100
2020-07-01 07:00:00 14.1 29 Norte 46 Norte 0 -- -- 100
2020-07-01 06:00:00 13.9 24 Norte 49 Norte 0 -- -- 100
2020-07-01 05:00:00 13.9 28 Norte 45 Norte 0.2 -- -- 100
2020-07-01 04:00:00 13.8 21 Norte 39 Norte 0 -- -- 100
2020-07-01 03:00:00 14.1 19 Norte 34 Norte 0 -- -- 100
2020-07-01 02:00:00 14.2 14 Norte 33 Nordeste 0 -- -- 100
2020-07-01 01:00:00 14.4 23 Norte 38 Norte 0 -- -- 100
2020-07-01 00:00:00 13.8 25 Norte 45 Nordeste 0 -- -- 100
2020-06-30 23:00:00 14.1 27 Norte 48 Norte 0 -- -- 100
2020-06-30 22:00:00 14.3 28 Norte 49 Noroeste 0 -- -- 100
2020-06-30 21:00:00 14.6 28 Norte 49 Norte 0 -- -- 100
2020-06-30 20:00:00 14.9 26 Norte 46 Noroeste 0 -- -- 100
2020-06-30 19:00:00 15.4 22 Norte 44 Norte 0 -- -- 99
2020-06-30 18:00:00 16.3 21 Norte 36 Norte 0 -- -- 96
2020-06-30 17:00:00 17.3 18 Norte 34 Norte 0 -- -- 99
2020-06-30 16:00:00 17.2 20 Norte 38 Norte 0 -- -- 99
2020-06-30 15:00:00 16.6 22 Norte 46 Norte 0 -- -- 100
2020-06-30 14:00:00 16.4 23 Noroeste 40 Norte 0 -- -- 100
2020-06-30 13:00:00 16.7 20 Noroeste 36 Noroeste 0 -- -- 100
2020-06-30 12:00:00 16.3 21 Norte 49 Noroeste 0 -- -- 100
2020-06-30 11:00:00 15.1 24 Norte 45 Norte 0 -- -- 100
2020-06-30 10:00:00 14.8 30 Norte 51 Noroeste 0 -- -- 100
2020-06-30 09:00:00 14.1 28 Noroeste 47 Norte 0 -- -- 100
2020-06-30 08:00:00 14.1 25 Noroeste 48 Noroeste 0.2 -- -- 100
2020-06-30 07:00:00 14.4 20 Noroeste 50 Noroeste 0.2 -- -- 100
2020-06-30 06:00:00 14.5 20 Noroeste 57 Noroeste 0.2 -- -- 100
2020-06-30 05:00:00 14.2 29 Noroeste 50 Norte 0.4 -- -- 100
2020-06-30 04:00:00 14.3 31 Noroeste 54 Noroeste 0 -- -- 100
2020-06-30 03:00:00 14.3 36 Noroeste 59 Noroeste 0.2 -- -- 100
2020-06-30 02:00:00 14.5 33 Noroeste 51 Norte 0.2 -- -- 100
2020-06-30 01:00:00 14.3 34 Noroeste 56 Noroeste 0.2 -- -- 100
2020-06-30 00:00:00 14.8 38 Noroeste 58 Noroeste 0.4 -- -- 100
2020-06-29 23:00:00 14.7 38 Noroeste 62 Norte 0 -- -- 100
2020-06-29 22:00:00 14.4 45 Noroeste 63 Noroeste 0.2 -- -- 100
2020-06-29 21:00:00 14.9 42 Noroeste 68 Norte 0.2 -- -- 100
2020-06-29 20:00:00 14.9 44 Noroeste 68 Noroeste 0.2 -- -- 100
2020-06-29 19:00:00 15.2 39 Noroeste 73 Noroeste 0 -- -- 100
2020-06-29 18:00:00 15.4 38 Noroeste 63 Noroeste 0 -- -- 100
2020-06-29 17:00:00 15.2 35 Noroeste 56 Norte 0 -- -- 100
2020-06-29 16:00:00 15.4 33 Noroeste 58 Norte 0 -- -- 100
2020-06-29 15:00:00 15.1 34 Norte 57 Noroeste 0.4 -- -- 100
2020-06-29 14:00:00 15.2 34 Norte 59 Noroeste 0 -- -- 100
2020-06-29 13:00:00 15.3 30 Norte 60 Norte 0.8 -- -- 100
2020-06-29 12:00:00 15.3 30 Noroeste 54 Norte 0 -- -- 100
2020-06-29 11:00:00 15.3 26 Norte 56 Noroeste 1.4 -- -- 100
2020-06-29 10:00:00 15.2 31 Noroeste 61 Noroeste 0.6 -- -- 100
2020-06-29 09:00:00 14.8 33 Norte 62 Norte 1.2 -- -- 100
2020-06-29 08:00:00 14.3 32 Noroeste 61 Norte 1 -- -- 100
2020-06-29 07:00:00 14.8 18 Noroeste 52 Norte 1 -- -- 100
2020-06-29 06:00:00 14.6 20 Noroeste 53 Norte 0.6 -- -- 100
2020-06-29 05:00:00 14.4 22 Noroeste 60 Noroeste 0.4 -- -- 100
2020-06-29 04:00:00 14.4 33 Norte 58 Noroeste 0.4 -- -- 100
2020-06-29 03:00:00 14.6 31 Noroeste 58 Noroeste 0.4 -- -- 100
2020-06-29 02:00:00 14.5 20 Norte 58 Norte 0.8 -- -- 100
2020-06-29 01:00:00 14.8 28 Noroeste 49 Noroeste 0.2 -- -- 100
2020-06-29 00:00:00 14.7 19 Noroeste 50 Noroeste 0.4 -- -- 100
2020-06-28 23:00:00 15.4 21 Noroeste 47 Noroeste 0.8 -- -- 100
2020-06-28 22:00:00 15.3 25 Noroeste 55 Noroeste 1.2 -- -- 100
2020-06-28 21:00:00 15.1 32 Norte 64 Noroeste 0 -- -- 100
2020-06-28 20:00:00 14.7 34 Noroeste 63 Noroeste 0.2 -- -- 100
2020-06-28 19:00:00 15.6 32 Noroeste 62 Noroeste -- -- -- 99
2020-06-28 18:00:00 15.4 33 Norte 55 Norte 0 -- -- 99
2020-06-28 17:00:00 15.6 32 Noroeste 58 Norte 0 -- -- 98
2020-06-28 16:00:00 15.4 33 Noroeste 58 Noroeste 0 -- -- 99
2020-06-28 15:00:00 15.5 36 Noroeste 58 Noroeste 0 -- -- 98
2020-06-28 14:00:00 16.1 34 Noroeste 55 Norte 0 -- -- 99
2020-06-28 13:00:00 15.2 37 Norte 57 Noroeste 0 -- -- 100
2020-06-28 12:00:00 15 35 Noroeste 56 Noroeste 0.2 -- -- 100
2020-06-28 11:00:00 15.1 36 Noroeste 59 Noroeste 0 -- -- 100
2020-06-28 10:00:00 14.5 38 Noroeste 60 Noroeste 0 -- -- 100
2020-06-28 09:00:00 14.5 32 Noroeste 54 Norte 0 -- -- 100
2020-06-28 08:00:00 14.3 39 Noroeste 58 Noroeste 0 -- -- 100
2020-06-28 07:00:00 14 37 Norte 61 Noroeste 0 -- -- 100
2020-06-28 06:00:00 13.8 37 Noroeste 57 Noroeste 0.2 -- -- 100
2020-06-28 05:00:00 14 33 Norte 53 Noroeste 0 -- -- 100
2020-06-28 04:00:00 14.1 20 Norte 53 Norte 0 -- -- 100
2020-06-28 03:00:00 14.1 28 Norte 55 Noroeste 0 -- -- 100
2020-06-28 02:00:00 14.2 19 Norte 48 Nordeste 0 -- -- 99
2020-06-28 01:00:00 14.4 18 Norte 46 Norte 0 -- -- 99
2020-06-28 00:00:00 14.4 12 Norte 51 Norte 0 -- -- 99
2020-06-27 23:00:00 14.3 18 Norte 51 Norte 0 -- -- 99
2020-06-27 22:00:00 14.5 32 Norte 55 Norte 0 -- -- 98
2020-06-27 21:00:00 14.2 29 Norte 56 Norte 0 -- -- 97
2020-06-27 20:00:00 14.6 33 Norte 56 Norte 0 -- -- 95
2020-06-27 19:00:00 15.2 36 Norte 57 Norte 0 -- -- 92
2020-06-27 18:00:00 16.1 32 Norte 57 Norte 0 -- -- 88
2020-06-27 17:00:00 16.7 31 Norte 58 Norte 0 -- -- 83
2020-06-27 16:00:00 16.9 35 Norte 59 Norte 0 -- -- 82
2020-06-27 15:00:00 17.2 35 Norte 54 Norte 0 -- -- 83
2020-06-27 14:00:00 17.4 26 Norte 50 Norte 0 -- -- 80
2020-06-27 13:00:00 16.6 23 Norte 50 Norte 0 -- -- 82
2020-06-27 12:00:00 15.9 27 Norte 50 Norte 0 -- -- 85
2020-06-27 11:00:00 15.1 27 Norte 53 Noroeste 0 -- -- 87
2020-06-27 10:00:00 14 28 Norte 51 Noroeste 0 -- -- 94
2020-06-27 09:00:00 13.3 32 Noroeste 55 Norte 0 -- -- 95
2020-06-27 08:00:00 12.5 30 Norte 54 Noroeste 0 -- -- 99
2020-06-27 07:00:00 12.7 32 Noroeste 51 Noroeste 0 -- -- 98
2020-06-27 06:00:00 12.6 31 Norte 55 Noroeste 0 -- -- 99
2020-06-27 05:00:00 12.6 30 Norte 60 Noroeste 0 -- -- 99
2020-06-27 04:00:00 12.8 37 Noroeste 54 Norte 0 -- -- 99
2020-06-27 03:00:00 13 37 Noroeste 55 Norte 0 -- -- 99
2020-06-27 02:00:00 12.6 36 Noroeste 58 Noroeste 0 -- -- 99
2020-06-27 01:00:00 12.9 38 Noroeste 57 Norte 0 -- -- 99
2020-06-27 00:00:00 13 37 Noroeste 58 Norte 0 -- -- 99
2020-06-26 23:00:00 13 40 Noroeste 66 Norte 0 -- -- 99
2020-06-26 22:00:00 13.2 35 Noroeste 50 Norte 0 -- -- 100
2020-06-26 21:00:00 13.5 31 Noroeste 52 Norte 0 -- -- 100
2020-06-26 20:00:00 13.7 32 Noroeste 53 Noroeste 0 -- -- 100
2020-06-26 19:00:00 14.1 30 Norte 51 Noroeste 0 -- -- 99
2020-06-26 18:00:00 14.8 28 Noroeste 49 Norte 0 -- -- 94
2020-06-26 17:00:00 15.4 26 Norte 43 Norte 0 -- -- 91
2020-06-26 16:00:00 15.5 15 Norte 45 Norte 0 -- -- 94
2020-06-26 15:00:00 16.9 21 Norte 49 Nordeste 0 -- -- 83
2020-06-26 14:00:00 15.2 26 Norte 43 Noroeste 0 -- -- 93
2020-06-26 13:00:00 16.1 22 Norte 54 Norte 0 -- -- 86
2020-06-26 12:00:00 15.3 31 Norte 58 Norte 0 -- -- 89
2020-06-26 11:00:00 14.4 23 Norte 46 Noroeste 0 -- -- 97
2020-06-26 10:00:00 14.6 25 Norte 53 Norte 0 -- -- 94
2020-06-26 09:00:00 13.5 26 Norte 55 Norte 0 -- -- 96
2020-06-26 08:00:00 12.9 42 Norte 67 Noroeste 0 -- -- 98
2020-06-26 07:00:00 12.7 40 Noroeste 59 Norte 0 -- -- 100
2020-06-26 06:00:00 13.6 31 Norte 56 Noroeste 0.2 -- -- 100
2020-06-26 05:00:00 13.8 16 Norte 50 Noroeste 0 -- -- 99
2020-06-26 04:00:00 13.2 29 Noroeste 59 Noroeste 0 -- -- 99
2020-06-26 03:00:00 13.6 24 Norte 55 Norte 0.2 -- -- 100
2020-06-26 02:00:00 13.7 23 Noroeste 52 Noroeste 0 -- -- 100
2020-06-26 01:00:00 14.1 27 Noroeste 50 Noroeste 0 -- -- 100
2020-06-26 00:00:00 14.2 18 Norte 40 Norte 0.4 -- -- 99
2020-06-25 23:00:00 14 15 Norte 51 Norte 0 -- -- 99
2020-06-25 22:00:00 14.3 13 Noroeste 58 Norte 0 -- -- 99
2020-06-25 21:00:00 14.6 28 Noroeste 59 Noroeste 0 -- -- 97
2020-06-25 20:00:00 14.5 31 Noroeste 57 Noroeste 0 -- -- 95
2020-06-25 19:00:00 14.9 29 Noroeste 53 Norte 0 -- -- 92
2020-06-25 18:00:00 15.8 35 Noroeste 62 Noroeste 0 -- -- 86
2020-06-25 17:00:00 16.8 37 Noroeste 58 Noroeste 0 -- -- 80
2020-06-25 16:00:00 16.6 32 Noroeste 57 Noroeste 0 -- -- 83
2020-06-25 15:00:00 16.4 28 Noroeste 54 Noroeste 0 -- -- 86
2020-06-25 14:00:00 17.1 28 Noroeste 48 Noroeste 0 -- -- 81
2020-06-25 13:00:00 17.4 18 Noroeste 49 Noroeste 0 -- -- 78
2020-06-25 12:00:00 15.7 27 Noroeste 49 Norte 0 -- -- 89
2020-06-25 11:00:00 15.2 26 Noroeste 50 Noroeste 0 -- -- 90
2020-06-25 10:00:00 14.6 29 Noroeste 63 Norte 0 -- -- 92
2020-06-25 09:00:00 13.8 40 Noroeste 62 Norte 0 -- -- 94
2020-06-25 08:00:00 13.3 36 Noroeste 60 Noroeste 0 -- -- 100
2020-06-25 07:00:00 13.6 34 Norte 71 Noroeste 0 -- -- 99
2020-06-25 06:00:00 13.4 34 Noroeste 57 Noroeste 0 -- -- 98
2020-06-25 05:00:00 13.3 28 Noroeste 55 Noroeste 0 -- -- 99
2020-06-25 04:00:00 13.3 31 Noroeste 61 Noroeste 0 -- -- 100
2020-06-25 03:00:00 13.8 31 Noroeste 57 Noroeste 0 -- -- 100
2020-06-25 02:00:00 13.9 33 Noroeste 57 Noroeste 0 -- -- 100
2020-06-25 01:00:00 14.3 30 Noroeste 64 Noroeste 0 -- -- 100
2020-06-25 00:00:00 14.2 36 Noroeste 64 Noroeste 0 -- -- 100
2020-06-24 23:00:00 14 36 Noroeste 68 Noroeste 0 -- -- 99
2020-06-24 22:00:00 14 43 Noroeste 66 Oeste 0 -- -- 98
2020-06-24 21:00:00 14 21 Noroeste 51 Noroeste 0 -- -- 99
2020-06-24 20:00:00 14.7 14 Noroeste 54 Noroeste 0 -- -- 99
2020-06-24 19:00:00 14.8 17 Noroeste 49 Noroeste 0 -- -- 98
2020-06-24 18:00:00 14.4 18 Noroeste 53 Noroeste 0 -- -- 98
2020-06-24 17:00:00 15.6 24 Noroeste 66 Oeste 0 -- -- 92
2020-06-24 16:00:00 15 28 Noroeste 59 Noroeste 0 -- -- 97
2020-06-24 15:00:00 14.6 29 Noroeste 57 Noroeste 0 -- -- 98
2020-06-24 14:00:00 15 33 Noroeste 59 Noroeste 0 -- -- 97
2020-06-24 13:00:00 15.5 40 Noroeste 67 Noroeste 0 -- -- 92
2020-06-24 12:00:00 15.7 46 Noroeste 73 Noroeste 0 -- -- 90
2020-06-24 11:00:00 14.6 44 Noroeste 65 Noroeste 0 -- -- 99
2020-06-24 10:00:00 13.9 47 Noroeste 68 Noroeste 0 -- -- 100
2020-06-24 09:00:00 14 42 Noroeste 64 Noroeste 0 -- -- 100
2020-06-24 08:00:00 13.5 45 Noroeste 67 Noroeste 0 -- -- 100
2020-06-24 07:00:00 13.5 45 Noroeste 67 Noroeste 0 -- -- 100
2020-06-24 06:00:00 13.8 43 Noroeste 65 Noroeste 0 -- -- 100
2020-06-24 05:00:00 13.6 41 Noroeste 64 Noroeste 0.2 -- -- 100
2020-06-24 04:00:00 13.8 39 Noroeste 58 Noroeste 0 -- -- 100
2020-06-24 03:00:00 13.7 39 Noroeste 58 Noroeste 0 -- -- 100
2020-06-24 02:00:00 13.6 32 Noroeste 57 Noroeste 0 -- -- 100
2020-06-24 01:00:00 14.1 19 Norte 42 Noroeste 0 -- -- 100
2020-06-24 00:00:00 14.7 11 Noroeste 40 Norte 0 -- -- 99
2020-06-23 23:00:00 14.4 12 Noroeste 40 Noroeste 0 -- -- 99
2020-06-23 22:00:00 14.1 17 Noroeste 40 Noroeste 0 -- -- 99
2020-06-23 21:00:00 14.4 17 Noroeste 39 Noroeste 0 -- -- 99
2020-06-23 20:00:00 14.4 17 Noroeste 57 Noroeste 0 -- -- 97
2020-06-23 19:00:00 14.7 28 Noroeste 60 Noroeste 0 -- -- 97
2020-06-23 18:00:00 15.2 25 Noroeste 58 Noroeste 0 -- -- 97
2020-06-23 17:00:00 15.6 39 Noroeste 60 Noroeste 0 -- -- 94
2020-06-23 16:00:00 16.5 42 Noroeste 64 Norte 0 -- -- 86
2020-06-23 15:00:00 17.1 37 Noroeste 54 Norte 0 -- -- 86
2020-06-23 14:00:00 16.6 39 Norte 56 Noroeste 0 -- -- 90
2020-06-23 13:00:00 16.9 36 Noroeste 59 Noroeste 0 -- -- 88
2020-06-23 12:00:00 16.3 38 Noroeste 55 Norte 0 -- -- 90
2020-06-23 11:00:00 16.1 35 Noroeste 55 Norte 0 -- -- 89
2020-06-23 10:00:00 14.9 37 Noroeste 54 Noroeste 0 -- -- 96
2020-06-23 09:00:00 14.2 37 Noroeste 53 Norte 0 -- -- 100
2020-06-23 08:00:00 13.3 36 Norte 57 Noroeste 0 -- -- 100
2020-06-23 07:00:00 13.6 37 Noroeste 55 Noroeste 0 -- -- 100
2020-06-23 06:00:00 13.5 23 Noroeste 50 Norte 0 -- -- 100
2020-06-23 05:00:00 13.7 29 Norte 49 Norte -- -- -- 100
2020-06-23 04:00:00 13.8 24 Noroeste 53 Norte 0 -- -- 100
2020-06-23 03:00:00 13.7 26 Noroeste 52 Noroeste 0 -- -- 100
2020-06-23 02:00:00 14 35 Noroeste 51 Norte 0 -- -- 100
2020-06-23 01:00:00 13.8 36 Norte 54 Noroeste 0 -- -- 100
2020-06-23 00:00:00 13.7 38 Noroeste 51 Norte 0 -- -- 99
2020-06-22 23:00:00 13.6 37 Norte 50 Norte 0 -- -- 99
2020-06-22 22:00:00 13.9 37 Norte 51 Noroeste 0 -- -- 98
2020-06-22 21:00:00 14.3 37 Noroeste 51 Noroeste 0 -- -- 98
2020-06-22 20:00:00 14.7 37 Noroeste 52 Noroeste 0 -- -- 95
2020-06-22 19:00:00 16.4 34 Norte 45 Noroeste 0 -- -- 86
2020-06-22 18:00:00 17.8 30 Norte 41 Norte 0 -- -- 79
2020-06-22 17:00:00 18.7 28 Norte 43 Norte 0 -- -- 75
2020-06-22 16:00:00 19.5 24 Noroeste 37 Norte 0 -- -- 71
2020-06-22 15:00:00 20.1 15 Norte 37 Norte 0 -- -- 71
2020-06-22 14:00:00 18.7 24 Noroeste 41 Norte 0 -- -- 77
2020-06-22 13:00:00 17.8 22 Noroeste 46 Nordeste 0 -- -- 82
2020-06-22 12:00:00 16.1 34 Norte 49 Noroeste 0 -- -- 90
2020-06-22 11:00:00 15.2 32 Noroeste 50 Norte 0 -- -- 96
2020-06-22 10:00:00 14.5 36 Norte 54 Norte 0 -- -- 99
2020-06-22 09:00:00 13.9 37 Noroeste 53 Noroeste 0 -- -- 100
2020-06-22 08:00:00 13.7 38 Noroeste 53 Noroeste 0 -- -- 100
2020-06-22 07:00:00 13.7 39 Noroeste 57 Norte 0 -- -- 100
2020-06-22 06:00:00 14 39 Noroeste 53 Noroeste 0 -- -- 99
2020-06-22 05:00:00 13.8 19 Norte 41 Noroeste 0 -- -- 98
2020-06-22 04:00:00 13.8 10 Norte 45 Norte 0 -- -- 92
2020-06-22 03:00:00 14.1 17 Norte 34 Noroeste 0 -- -- 91
2020-06-22 02:00:00 14.1 7 Noroeste 22 Noroeste 0 -- -- 88
2020-06-22 01:00:00 13.8 9 Noroeste 43 Norte 0 -- -- 92
2020-06-22 00:00:00 13.7 22 Norte 47 Norte 0 -- -- 98
2020-06-21 23:00:00 14.3 36 Norte 53 Noroeste 0 -- -- 98
2020-06-21 22:00:00 14.4 34 Norte 55 Norte 0 -- -- 98
2020-06-21 21:00:00 14.6 33 Norte 46 Norte 0 -- -- 96
2020-06-21 20:00:00 15.1 23 Norte 42 Norte 0 -- -- 91
2020-06-21 19:00:00 16.1 23 Norte 43 Norte 0 -- -- 83
2020-06-21 18:00:00 17.6 21 Norte 36 Noroeste 0 -- -- 79
2020-06-21 17:00:00 17.7 22 Norte 41 Noroeste 0 -- -- 81
2020-06-21 16:00:00 19.9 10 Norte 23 Noroeste 0 -- -- 71
2020-06-21 15:00:00 20.2 8 Sudoeste 29 Nordeste 0 -- -- 74
2020-06-21 14:00:00 21.1 10 Sudeste 28 Sudeste 0 -- -- 66
2020-06-21 13:00:00 19.6 9 Sur 33 Sudeste 0 -- -- 76
2020-06-21 12:00:00 18.8 11 Noroeste 31 Nordeste 0 -- -- 77
2020-06-21 11:00:00 18.7 8 Sudeste 36 Sudeste 0 -- -- 76
2020-06-21 10:00:00 18.1 10 Sudeste 32 Norte 0 -- -- 79
2020-06-21 09:00:00 14.7 13 Norte 52 Norte 0 -- -- 95
2020-06-21 08:00:00 13.4 29 Norte 53 Noroeste 0 -- -- 98
2020-06-21 07:00:00 13.3 29 Norte 50 Norte 0 -- -- 98
2020-06-21 06:00:00 13.6 24 Norte 48 Nordeste 0 -- -- 97
2020-06-21 05:00:00 13.3 23 Norte 44 Norte 0 -- -- 97
2020-06-21 04:00:00 13.5 23 Norte 43 Norte 0 -- -- 98
2020-06-21 03:00:00 13.4 21 Norte 48 Norte 0 -- -- 97
2020-06-21 02:00:00 13.3 10 Noroeste 41 Norte 0 -- -- 96
2020-06-21 01:00:00 13.4 16 Norte 49 Norte 0 -- -- 97
2020-06-21 00:00:00 13.1 34 Norte 55 Norte 0 -- -- 97
2020-06-20 23:00:00 13.8 28 Norte 52 Noroeste 0 -- -- 99
2020-06-20 22:00:00 14 34 Noroeste 52 Noroeste 0 -- -- 99
2020-06-20 21:00:00 14.4 34 Noroeste 53 Noroeste 0 -- -- 98
2020-06-20 20:00:00 14.9 30 Noroeste 50 Norte 0 -- -- 96
2020-06-20 19:00:00 14.9 33 Norte 53 Norte 0 -- -- 93
2020-06-20 18:00:00 16 26 Norte 44 Norte 0 -- -- 85
2020-06-20 17:00:00 17.1 20 Norte 44 Noroeste 0 -- -- 79
2020-06-20 16:00:00 17.2 26 Noroeste 47 Norte 0 -- -- 78
2020-06-20 15:00:00 16.7 31 Noroeste 52 Noroeste 0 -- -- 84
2020-06-20 14:00:00 16.3 32 Noroeste 49 Noroeste 0 -- -- 88
2020-06-20 13:00:00 16.3 18 Noroeste 39 Noroeste 0 -- -- 89
2020-06-20 12:00:00 15.5 14 Noroeste 39 Oeste 0 -- -- 93
2020-06-20 11:00:00 14.8 11 Noroeste 42 Oeste 0 -- -- 97
2020-06-20 10:00:00 14.5 9 Noroeste 40 Noroeste 0 -- -- 98
2020-06-20 09:00:00 14 8 Norte 27 Noroeste 0 -- -- 99
2020-06-20 08:00:00 13.6 8 Norte 36 Este 0 -- -- 100
2020-06-20 07:00:00 13.7 8 Norte 33 Nordeste 0 -- -- 100
2020-06-20 06:00:00 13.8 7 Norte 32 Este 0 -- -- 100
2020-06-20 05:00:00 14.3 8 Norte 32 Este 0.2 -- -- 100
2020-06-20 04:00:00 14.1 8 Norte 38 Nordeste 0.4 -- -- 100
2020-06-20 03:00:00 14.3 14 Norte 29 Norte 0 -- -- 99
2020-06-20 02:00:00 14.3 12 Norte 38 Nordeste 0.2 -- -- 99
2020-06-20 01:00:00 14.4 10 Norte 44 Este 0 -- -- 98
2020-06-20 00:00:00 14.5 22 Norte 46 Nordeste 0 -- -- 97
2020-06-19 23:00:00 14.3 28 Norte 49 Nordeste 0 -- -- 96
2020-06-19 22:00:00 14.5 27 Norte 45 Norte 0 -- -- 95
2020-06-19 21:00:00 14.6 27 Norte 43 Norte 0 -- -- 93
2020-06-19 20:00:00 15 26 Norte 40 Norte 0 -- -- 92
2020-06-19 19:00:00 16 26 Norte 47 Norte 0 -- -- 84
2020-06-19 18:00:00 17 24 Norte 43 Norte 0 -- -- 82
2020-06-19 17:00:00 17.9 18 Norte 40 Norte 0 -- -- 75
2020-06-19 16:00:00 17.9 8 Norte 28 Este 0 -- -- 81
2020-06-19 15:00:00 17.3 11 Nordeste 33 Nordeste 0 -- -- 87
2020-06-19 14:00:00 17.3 13 Este 32 Este 0 -- -- 86
2020-06-19 13:00:00 16.5 5 Este 32 Este 0 -- -- 88
2020-06-19 12:00:00 15.9 7 Nordeste 32 Este 0 -- -- 94
2020-06-19 11:00:00 15.7 7 Este 23 Nordeste 0 -- -- 92
2020-06-19 10:00:00 15.1 8 Norte 30 Este 0 -- -- 93
2020-06-19 09:00:00 14.2 9 Norte 33 Este 0 -- -- 97
2020-06-19 08:00:00 14.2 9 Norte 29 Nordeste 0 -- -- 99
2020-06-19 07:00:00 14 9 Norte 29 Nordeste 0 -- -- 99
2020-06-19 06:00:00 14 7 Nordeste 31 Este 0 -- -- 99
2020-06-19 05:00:00 14.4 7 Este 28 Este 0 -- -- 99
2020-06-19 04:00:00 14.3 10 Este 33 Norte 0 -- -- 99
2020-06-19 03:00:00 14.4 6 Este 27 Nordeste 0 -- -- 99
2020-06-19 02:00:00 14.9 6 Norte 24 Nordeste 0.8 -- -- 99
2020-06-19 01:00:00 14.7 8 Norte 29 Nordeste 0 -- -- 99
2020-06-19 00:00:00 14.6 8 Noroeste 33 Noroeste 0 -- -- 99
2020-06-18 23:00:00 14.1 23 Noroeste 49 Noroeste 0 -- -- 97
2020-06-18 22:00:00 14.2 31 Noroeste 48 Noroeste 0 -- -- 98
2020-06-18 21:00:00 14.4 30 Noroeste 44 Noroeste 0 -- -- 97
2020-06-18 20:00:00 15 25 Noroeste 49 Noroeste 0 -- -- 90
2020-06-18 19:00:00 16.3 26 Noroeste 46 Noroeste 0 -- -- 83
2020-06-18 18:00:00 16.5 31 Noroeste 44 Noroeste 0 -- -- 80
2020-06-18 17:00:00 17.3 15 Noroeste 33 Noroeste 0 -- -- 81
2020-06-18 16:00:00 16.8 6 Nordeste 22 Noroeste 0 -- -- 90
2020-06-18 15:00:00 16.4 7 Noroeste 26 Norte 0 -- -- 92
2020-06-18 14:00:00 16.5 13 Noroeste 32 Noroeste 0 -- -- 87
2020-06-18 13:00:00 15.4 13 Noroeste 32 Noroeste 0 -- -- 95
2020-06-18 12:00:00 16.4 10 Norte 35 Noroeste 0 -- -- 98
2020-06-18 11:00:00 15 15 Noroeste 33 Norte 0 -- -- 97
2020-06-18 10:00:00 14.4 15 Noroeste 39 Noroeste 0 -- -- 98
2020-06-18 09:00:00 13.9 18 Noroeste 39 Noroeste 0 -- -- 99
2020-06-18 08:00:00 13.8 15 Noroeste 35 Noroeste 0 -- -- 100
2020-06-18 07:00:00 13.9 17 Noroeste 41 Noroeste 0 -- -- 99
2020-06-18 06:00:00 14.2 14 Noroeste 33 Noroeste 0 -- -- 99
2020-06-18 05:00:00 14.3 17 Noroeste 38 Noroeste 0 -- -- 99
2020-06-18 04:00:00 14.4 11 Noroeste 40 Noroeste 0.2 -- -- 99
2020-06-18 03:00:00 14.5 15 Noroeste 36 Oeste 0.6 -- -- 98
2020-06-18 02:00:00 15.1 13 Noroeste 32 Noroeste 0 -- -- 96
2020-06-18 01:00:00 15.2 11 Noroeste 28 Noroeste 0 -- -- 94
2020-06-18 00:00:00 15.1 12 Noroeste 27 Noroeste 0 -- -- 94
2020-06-17 23:00:00 15.6 9 Noroeste 28 Noroeste 0 -- -- 95
2020-06-17 22:00:00 15.9 12 Noroeste 27 Noroeste 0 -- -- 95
2020-06-17 21:00:00 16.3 9 Noroeste 25 Noroeste 0 -- -- 94
2020-06-17 20:00:00 16.8 11 Noroeste 24 Noroeste 0 -- -- 92
2020-06-17 19:00:00 18.7 6 Oeste 19 Oeste 0 -- -- 84
2020-06-17 18:00:00 19.7 6 Oeste 21 Oeste 0 -- -- 80
2020-06-17 17:00:00 21.7 8 Noroeste 24 Oeste 0 -- -- 74
2020-06-17 16:00:00 21.2 10 Noroeste 29 Noroeste 0 -- -- 74
2020-06-17 15:00:00 20.9 14 Noroeste 29 Noroeste 0 -- -- 75
2020-06-17 14:00:00 20.1 6 Noroeste 22 Noroeste 0 -- -- 79
2020-06-17 13:00:00 22.8 6 Sudoeste 30 Noroeste 0 -- -- 67
2020-06-17 12:00:00 19.9 22 Noroeste 40 Noroeste 0 -- -- 74
2020-06-17 11:00:00 16.9 27 Noroeste 46 Noroeste 0 -- -- 94
2020-06-17 10:00:00 18.6 5 Sur 24 Oeste 0 -- -- 82
2020-06-17 09:00:00 19.4 15 Noroeste 43 Noroeste 0 -- -- 68
2020-06-17 08:00:00 20.4 7 Nordeste 44 Noroeste 0 -- -- 65
2020-06-17 07:00:00 18.1 17 Noroeste 36 Noroeste 0 -- -- 75
2020-06-17 06:00:00 17.8 8 Oeste 50 Norte 0 -- -- 77
2020-06-17 05:00:00 17 27 Noroeste 53 Noroeste 0 -- -- 83
2020-06-17 04:00:00 18.5 19 Noroeste 34 Noroeste 0 -- -- 72
2020-06-17 03:00:00 20.3 6 Oeste 25 Noroeste 0 -- -- 63
2020-06-17 02:00:00 19.9 11 Noroeste 51 Noroeste 0 -- -- 64
2020-06-17 01:00:00 19.1 26 Noroeste 59 Noroeste 0 -- -- 68
2020-06-17 00:00:00 20.2 30 Noroeste 54 Noroeste 0 -- -- 60
2020-06-16 23:00:00 20.7 23 Noroeste 59 Oeste 0 -- -- 57
2020-06-16 22:00:00 21.7 27 Noroeste 64 Noroeste 0 -- -- 52
2020-06-16 21:00:00 21.3 23 Noroeste 60 Oeste 0 -- -- 55
2020-06-16 20:00:00 21.2 29 Noroeste 65 Norte 0 -- -- 55
2020-06-16 19:00:00 22.2 26 Noroeste 51 Noroeste 0 -- -- 53
2020-06-16 18:00:00 20.7 18 Noroeste 61 Oeste 0 -- -- 64
2020-06-16 17:00:00 19.7 26 Noroeste 47 Noroeste 0 -- -- 79
2020-06-16 16:00:00 21.5 23 Noroeste 43 Noroeste 0 -- -- 67
2020-06-16 15:00:00 24.2 21 Noroeste 40 Noroeste 0 -- -- 51
2020-06-16 14:00:00 25.2 13 Noroeste 32 Noroeste 0 -- -- 46
2020-06-16 13:00:00 25.7 17 Noroeste 36 Noroeste 0 -- -- 45
2020-06-16 12:00:00 25.4 14 Noroeste 38 Noroeste 0 -- -- 45
2020-06-16 11:00:00 24 15 Noroeste 26 Noroeste 0 -- -- 48
2020-06-16 10:00:00 23.2 17 Noroeste 29 Noroeste 0 -- -- 51
2020-06-16 09:00:00 22.1 9 Noroeste 13 Noroeste 0 -- -- 57
2020-06-16 08:00:00 20.8 9 Noroeste 15 Noroeste 0 -- -- 57
2020-06-16 07:00:00 20.1 8 Norte 20 Noroeste 0 -- -- 59
2020-06-16 06:00:00 20.1 10 Noroeste 19 Noroeste 0 -- -- 59
2020-06-16 05:00:00 19.9 16 Noroeste 25 Noroeste 0 -- -- 58
2020-06-16 04:00:00 20.5 15 Noroeste 20 Noroeste 0 -- -- 56
2020-06-16 03:00:00 20.1 4 Noroeste 28 Noroeste 0 -- -- 57
2020-06-16 02:00:00 19 21 Noroeste 31 Noroeste 0 -- -- 66
2020-06-16 01:00:00 19.3 20 Noroeste 31 Noroeste 0 -- -- 64
2020-06-16 00:00:00 19.6 12 Noroeste 36 Noroeste 0 -- -- 63
2020-06-15 23:00:00 18.8 26 Noroeste 41 Noroeste 0 -- -- 72
2020-06-15 22:00:00 18.9 28 Noroeste 48 Noroeste 0 -- -- 73
2020-06-15 21:00:00 19.6 17 Noroeste 44 Noroeste 0 -- -- 65
2020-06-15 20:00:00 19.9 23 Noroeste 38 Noroeste 0 -- -- 69
2020-06-15 19:00:00 20.4 22 Noroeste 35 Noroeste 0 -- -- 71
2020-06-15 18:00:00 22.5 10 Noroeste 38 Oeste 0 -- -- 62
2020-06-15 17:00:00 20.6 19 Noroeste 38 Noroeste 0 -- -- 71
2020-06-15 16:00:00 24.8 12 Noroeste 38 Noroeste 0 -- -- 57
2020-06-15 15:00:00 23.9 13 Noroeste 50 Noroeste 0 -- -- 56
2020-06-15 14:00:00 23.7 23 Noroeste 50 Noroeste 0 -- -- 56
2020-06-15 13:00:00 24.6 15 Noroeste 42 Oeste 0 -- -- 54
2020-06-15 12:00:00 19.3 18 Noroeste 45 Noroeste 0 -- -- 71
2020-06-15 11:00:00 20.8 16 Noroeste 34 Noroeste 0 -- -- 66
2020-06-15 10:00:00 20.5 6 Oeste 19 Noroeste 0 -- -- 64
2020-06-15 09:00:00 18.2 9 Noroeste 47 Noroeste 0 -- -- 68
2020-06-15 08:00:00 17.1 24 Noroeste 55 Noroeste 0 -- -- 73
2020-06-15 07:00:00 18.6 5 Norte 30 Noroeste 0 -- -- 72
2020-06-15 06:00:00 19.1 14 Noroeste 36 Oeste 0 -- -- 70
2020-06-15 05:00:00 16.3 8 Oeste 31 Noroeste 0.4 -- -- 89
2020-06-15 04:00:00 18.1 12 Noroeste 25 Noroeste 0.2 -- -- 73
2020-06-15 03:00:00 22.3 15 Noroeste 27 Oeste 0 -- -- 46
2020-06-15 02:00:00 21.9 11 Noroeste 24 Noroeste 0 -- -- 48
2020-06-15 01:00:00 21.9 13 Noroeste 26 Noroeste 0 -- -- 47
2020-06-15 00:00:00 23.4 8 Noroeste 19 Noroeste 0 -- -- 41